Huvudsida
METAR-TAF:

METAR-TAF

Flygplatser :

Enontekis flygplats

Enontekis, Finland

latitud: 68-21-52N, longitud: 023-25-39E, höjd: 308 m

Aktuellt väderrapport

Denna rapport gjordes för 17 minuter sedan, klockan 00:20 UTC
Vind 8 kt från syd, varierande mellan sydost och sydväst
Temperatur -9°C
Fuktighet 85%
Tryck 1008 hPa
Sikt 10 km eller mer
Spridda moln på en höjd av 600 ft
Brutna moln på en höjd av 4600 ft

METAR: EFET 200020Z AUTO 18008KT 140V220 9999 SCT006 BKN046 M09/M11 Q1008

Tid: 02:37 (00:37 UTC)

Väderprognos

Denna rapport gjordes för 13 timmar och 0 minuter sedan, klockan 11:37 UTC
Prognos gäller från 19 kl. 12 UTC till 19 kl. 15 UTC
Vind 5 kt från nordost
Sikt 10 km eller mer
Mulet på en höjd av 1500 ft
Temporärt
från 19 kl. 12 UTC till 19 kl. 15 UTC
Brutna moln på en höjd av 1200 ft

TAF: EFET 191137Z 1912/1915 05005KT 9999 OVC015 TEMPO 1912/1915 BKN012

Aktuella väderrapporter och prognoser från 4000 flygplatser (METAR- och TAF-rapporter).

De tillgängliga stationerna syns som gula och röda prickar på kartan.

För musen över prickarna för att se namnen på stationerna.

Klicka sedan för att få väderrapporter och prognoser.

För att ändra kartan: Klicka på de gröna knapparna med ett svart kors på för att zooma in; den gröna knappen med ett streck på för att zooma ut; eller på de gröna pilarna för angränsande kartor.


METAR-TAF: